Time;durP1;ratioP1;P1;durP2;ratioP2;P2;SDS_P1;SDS_P2;PMS_P1;PMS_P2;Temp;Humidity;BMP_temperature;BMP_pressure;BME280_temperature;BME280_humidity;BME280_pressure;Samples;Min_cycle;Max_cycle;Signal;HPM_P1;HPM_P2
2024/02/03 00:00:51;;;;;;;11.40;5.95;;;;;;;6.95;100.00;99108.16;6107321;19;20024;-71
2024/02/03 00:02:51;;;;;;;10.25;5.85;;;;;;;6.91;100.00;99100.91;6108036;19;20007;-71
2024/02/03 00:04:51;;;;;;;9.32;5.97;;;;;;;6.94;100.00;99116.72;6107497;19;20056;-71
2024/02/03 00:06:52;;;;;;;12.40;5.68;;;;;;;6.93;100.00;99115.13;6107595;19;19999;-71
2024/02/03 00:08:52;;;;;;;9.68;6.10;;;;;;;6.93;100.00;99128.88;6107950;19;20003;-71
2024/02/03 00:10:52;;;;;;;11.18;6.05;;;;;;;6.88;100.00;99121.66;6108772;19;20328;-71
2024/02/03 00:12:53;;;;;;;7.68;5.25;;;;;;;6.94;100.00;99120.28;6107509;19;20062;-71
2024/02/03 00:14:54;;;;;;;9.27;5.88;;;;;;;6.93;100.00;99126.13;6108204;19;20039;-71
2024/02/03 00:16:54;;;;;;;11.35;5.50;;;;;;;6.94;100.00;99124.97;6107798;19;20338;-71
2024/02/03 00:18:54;;;;;;;9.23;5.47;;;;;;;6.89;100.00;99136.22;6108028;19;20006;-71
2024/02/03 00:20:55;;;;;;;8.75;5.45;;;;;;;6.94;100.00;99141.47;6107625;19;20005;-71
2024/02/03 00:22:55;;;;;;;9.70;4.90;;;;;;;6.95;100.00;99137.59;6108626;19;20010;-71
2024/02/03 00:24:56;;;;;;;8.18;5.07;;;;;;;7.01;100.00;99155.50;6107197;19;20539;-71
2024/02/03 00:26:56;;;;;;;11.90;5.88;;;;;;;6.98;100.00;99162.50;6107723;19;20058;-71
2024/02/03 00:28:57;;;;;;;8.18;5.00;;;;;;;6.93;100.00;99145.38;6107649;19;20035;-71
2024/02/03 00:30:57;;;;;;;10.52;6.10;;;;;;;6.92;100.00;99141.03;6108494;19;20018;-71
2024/02/03 00:32:57;;;;;;;7.35;4.65;;;;;;;7.00;100.00;99140.94;6106388;19;20010;-71
2024/02/03 00:34:57;;;;;;;9.88;5.28;;;;;;;6.98;100.00;99140.47;6105730;19;20014;-71
2024/02/03 00:36:58;;;;;;;9.82;5.53;;;;;;;6.95;100.00;99127.41;6106146;19;20011;-71
2024/02/03 00:38:58;;;;;;;10.45;5.30;;;;;;;6.98;100.00;99140.47;6106925;19;20011;-71
2024/02/03 00:40:59;;;;;;;9.68;4.72;;;;;;;7.00;100.00;99140.94;6106303;19;20358;-71
2024/02/03 00:42:59;;;;;;;8.52;4.68;;;;;;;6.91;100.00;99123.72;6107057;19;20007;-71
2024/02/03 00:44:59;;;;;;;11.25;5.88;;;;;;;6.96;100.00;99125.47;6107091;19;20011;-71
2024/02/03 00:46:59;;;;;;;7.82;4.80;;;;;;;6.98;100.00;99151.50;6107043;19;20014;-71
2024/02/03 00:49:00;;;;;;;8.50;4.82;;;;;;;6.96;100.00;99126.25;6107572;19;20022;-71
2024/02/03 00:51:00;;;;;;;9.10;5.15;;;;;;;6.95;100.00;99121.06;6108292;19;20010;-71
2024/02/03 00:53:01;;;;;;;10.00;5.32;;;;;;;6.90;100.00;99116.59;6104956;19;20013;-71
2024/02/03 00:55:03;;;;;;;8.32;4.93;;;;;;;6.86;100.00;99134.91;6106272;19;20010;-71
2024/02/03 00:57:04;;;;;;;9.43;5.72;;;;;;;6.88;100.00;99115.34;6107131;19;20022;-71
2024/02/03 00:59:05;;;;;;;8.30;4.95;;;;;;;6.83;100.00;99119.09;6106659;19;20015;-71
2024/02/03 01:01:05;;;;;;;9.95;5.60;;;;;;;6.84;100.00;99119.91;6107213;19;20010;-71
2024/02/03 01:03:05;;;;;;;8.80;4.43;;;;;;;6.86;100.00;99125.84;6107191;19;20116;-71
2024/02/03 01:05:06;;;;;;;11.00;5.50;;;;;;;6.85;100.00;99121.50;6107099;19;20002;-71
2024/02/03 01:07:06;;;;;;;7.88;5.07;;;;;;;6.88;100.00;99126.34;6105109;19;20386;-71
2024/02/03 01:09:07;;;;;;;7.45;4.43;;;;;;;6.90;100.00;99137.81;6106069;19;20013;-71
2024/02/03 01:11:07;;;;;;;6.93;4.68;;;;;;;6.83;100.00;99143.06;6107596;19;21481;-71
2024/02/03 01:13:09;;;;;;;6.95;4.72;;;;;;;6.85;100.00;99158.06;6106613;19;20002;-71
2024/02/03 01:15:09;;;;;;;8.65;4.57;;;;;;;6.90;100.00;99146.06;6105494;19;20011;-71
2024/02/03 01:17:10;;;;;;;9.27;4.78;;;;;;;6.89;100.00;99138.97;6106057;19;20030;-71
2024/02/03 01:19:10;;;;;;;9.90;4.43;;;;;;;6.84;100.00;99158.41;6106038;19;20394;-71
2024/02/03 01:21:22;;;;;;;7.72;4.85;;;;;;;6.78;100.00;99138.53;6107183;19;20002;-71
2024/02/03 01:23:22;;;;;;;7.82;4.65;;;;;;;6.75;100.00;99141.97;6106085;19;20009;-71
2024/02/03 01:25:23;;;;;;;9.65;5.03;;;;;;;6.74;100.00;99137.63;6105909;19;20335;-71
2024/02/03 01:27:23;;;;;;;10.20;5.05;;;;;;;6.76;100.00;99144.38;6106555;19;20006;-71
2024/02/03 01:29:24;;;;;;;8.70;4.47;;;;;;;6.76;100.00;99152.63;6106423;19;20002;-71
2024/02/03 01:31:24;;;;;;;8.23;5.07;;;;;;;6.81;100.00;99159.09;6112358;19;20003;-71
2024/02/03 01:33:24;;;;;;;9.45;4.68;;;;;;;6.79;100.00;99158.63;6111913;19;20003;-71
2024/02/03 01:35:25;;;;;;;7.70;4.90;;;;;;;6.72;100.00;99170.97;6112667;19;20006;-71
2024/02/03 01:37:25;;;;;;;7.25;4.25;;;;;;;6.79;100.00;99170.44;6110434;19;20597;-71
2024/02/03 01:39:26;;;;;;;7.82;5.13;;;;;;;6.78;100.00;99174.28;6110347;19;20022;-71
2024/02/03 01:41:27;;;;;;;7.80;4.93;;;;;;;6.79;100.00;99178.69;6112054;19;20002;-71
2024/02/03 01:43:27;;;;;;;8.20;4.65;;;;;;;6.79;100.00;99175.13;6111164;19;20029;-71
2024/02/03 01:45:28;;;;;;;7.72;4.82;;;;;;;6.73;100.00;99166.28;6111705;19;20161;-71
2024/02/03 01:47:28;;;;;;;10.05;4.80;;;;;;;6.73;100.00;99174.53;6101618;19;20591;-71
2024/02/03 01:49:31;;;;;;;6.93;4.30;;;;;;;6.74;100.00;99163.19;6110338;19;19998;-71
2024/02/03 01:51:33;;;;;;;7.97;4.97;;;;;;;6.76;100.00;99171.09;6110981;19;20014;-71
2024/02/03 01:53:34;;;;;;;8.35;5.03;;;;;;;6.78;100.00;99170.75;6111227;19;20010;-71
2024/02/03 01:55:35;;;;;;;8.15;5.57;;;;;;;6.73;100.00;99160.78;6111631;19;20812;-71
2024/02/03 01:57:38;;;;;;;6.30;4.05;;;;;;;6.77;100.00;99178.19;6109853;19;20027;-71
2024/02/03 01:59:40;;;;;;;9.23;4.65;;;;;;;6.74;100.00;99170.63;6110836;19;20011;-71
2024/02/03 02:01:41;;;;;;;8.13;5.07;;;;;;;6.75;100.00;99169.47;6109762;19;20010;-71
2024/02/03 02:03:43;;;;;;;7.88;4.75;;;;;;;6.63;100.00;99156.47;6110880;19;20572;-71
2024/02/03 02:05:44;;;;;;;9.65;5.07;;;;;;;6.62;100.00;99178.78;6110380;19;20482;-71
2024/02/03 02:07:44;;;;;;;8.95;4.82;;;;;;;6.61;100.00;99167.00;6109103;19;20002;-71
2024/02/03 02:09:45;;;;;;;6.93;4.68;;;;;;;6.58;100.00;99175.13;6110047;19;20003;-71
2024/02/03 02:11:46;;;;;;;8.60;4.85;;;;;;;6.55;100.00;99167.53;6109693;19;20015;-71
2024/02/03 02:13:46;;;;;;;10.45;6.07;;;;;;;6.56;100.00;99172.72;6110690;19;20344;-71
2024/02/03 02:15:47;;;;;;;9.48;5.13;;;;;;;6.55;100.00;99176.59;6110848;19;20461;-71
2024/02/03 02:17:48;;;;;;;6.38;4.68;;;;;;;6.61;100.00;99175.25;6109984;19;20349;-71
2024/02/03 02:19:48;;;;;;;7.22;4.72;;;;;;;6.63;100.00;99183.97;6109700;19;20010;-71
2024/02/03 02:21:48;;;;;;;7.60;4.38;;;;;;;6.63;100.00;99186.72;6109936;19;20018;-71
2024/02/03 02:23:49;;;;;;;7.00;4.55;;;;;;;6.67;100.00;99197.84;6109687;19;20014;-71
2024/02/03 02:25:49;;;;;;;9.88;4.70;;;;;;;6.67;100.00;99195.91;6110796;19;20034;-71
2024/02/03 02:27:51;;;;;;;8.15;4.05;;;;;;;6.67;100.00;99184.91;6108486;19;20010;-71
2024/02/03 02:29:51;;;;;;;6.32;4.30;;;;;;;6.61;100.00;99179.94;6109305;19;20007;-71
2024/02/03 02:31:52;;;;;;;7.55;4.53;;;;;;;6.55;100.00;99176.59;6110247;19;20321;-71
2024/02/03 02:33:52;;;;;;;7.10;4.57;;;;;;;6.55;100.00;99173.03;6108521;19;20467;-71
2024/02/03 02:35:52;;;;;;;7.55;4.40;;;;;;;6.65;100.00;99178.13;6108645;19;20013;-71
2024/02/03 02:37:53;;;;;;;8.02;4.65;;;;;;;6.58;100.00;99172.38;6108873;19;20016;-71
2024/02/03 02:39:53;;;;;;;7.45;4.35;;;;;;;6.62;100.00;99163.13;6108340;19;20848;-71
2024/02/03 02:41:53;;;;;;;7.38;4.10;;;;;;;6.63;100.00;99163.94;6107382;19;20021;-71
2024/02/03 02:43:54;;;;;;;6.55;4.10;;;;;;;6.69;100.00;99166.13;6109045;19;20344;-71
2024/02/03 02:45:55;;;;;;;6.07;4.38;;;;;;;6.66;100.00;99180.56;6110291;19;20471;-71
2024/02/03 02:47:56;;;;;;;8.50;4.40;;;;;;;6.62;100.00;99174.13;6102819;19;20010;-71
2024/02/03 02:49:56;;;;;;;9.10;4.30;;;;;;;6.65;100.00;99167.13;6102186;19;20026;-71
2024/02/03 02:51:57;;;;;;;7.78;4.00;;;;;;;6.64;100.00;99152.59;6101480;19;20015;-71
2024/02/03 02:53:57;;;;;;;6.05;3.75;;;;;;;6.70;100.00;99151.25;6103106;19;20014;-71
2024/02/03 02:55:58;;;;;;;6.40;3.80;;;;;;;6.67;100.00;99157.41;6101933;19;20700;-71
2024/02/03 02:57:58;;;;;;;6.93;4.00;;;;;;;6.70;100.00;99156.75;6101686;19;20030;-71
2024/02/03 02:59:59;;;;;;;6.05;3.70;;;;;;;6.73;100.00;99152.53;6102253;19;20026;-71
2024/02/03 03:01:59;;;;;;;5.95;3.58;;;;;;;6.69;100.00;99163.38;6102343;19;20010;-71
2024/02/03 03:03:59;;;;;;;6.35;3.40;;;;;;;6.61;100.00;99156.00;6101978;19;20033;-71
2024/02/03 03:05:59;;;;;;;6.18;3.63;;;;;;;6.63;100.00;99158.44;6101153;19;20100;-71
2024/02/03 03:08:00;;;;;;;6.38;3.45;;;;;;;6.64;100.00;99154.53;6100874;19;20006;-71
2024/02/03 03:10:00;;;;;;;4.07;2.95;;;;;;;6.68;100.00;99159.00;6101598;19;20372;-71
2024/02/03 03:12:00;;;;;;;4.53;3.13;;;;;;;6.71;100.00;99147.34;6102454;19;20394;-71
2024/02/03 03:14:01;;;;;;;5.03;2.70;;;;;;;6.73;100.00;99150.56;6102634;19;19999;-71
2024/02/03 03:16:01;;;;;;;6.55;3.35;;;;;;;6.74;100.00;99143.94;6101579;19;20003;-71
2024/02/03 03:18:01;;;;;;;5.65;3.30;;;;;;;6.76;100.00;99146.34;6101148;19;20003;-71
2024/02/03 03:20:02;;;;;;;4.90;3.13;;;;;;;6.70;100.00;99153.16;6099381;19;20555;-71
2024/02/03 03:22:04;;;;;;;4.05;2.70;;;;;;;6.72;100.00;99154.47;6101640;19;20763;-72
2024/02/03 03:24:04;;;;;;;4.63;2.70;;;;;;;6.76;100.00;99157.34;6101634;19;20010;-71
2024/02/03 03:26:05;;;;;;;5.38;2.97;;;;;;;6.79;100.00;99161.38;6102183;19;20017;-71
2024/02/03 03:28:06;;;;;;;5.45;3.17;;;;;;;6.76;100.00;99151.84;6100830;19;20003;-71
2024/02/03 03:30:07;;;;;;;4.68;2.90;;;;;;;6.81;100.00;99153.59;6101557;19;20331;-71
2024/02/03 03:32:07;;;;;;;3.72;2.58;;;;;;;6.79;100.00;99151.19;6102602;19;20011;-71
2024/02/03 03:34:07;;;;;;;3.25;2.28;;;;;;;6.77;100.00;99158.94;6101958;19;20036;-71
2024/02/03 03:36:09;;;;;;;4.65;2.10;;;;;;;6.79;100.00;99147.63;6102073;19;20366;-71
2024/02/03 03:38:11;;;;;;;3.65;2.38;;;;;;;6.77;100.00;99153.44;6101359;19;20369;-71
2024/02/03 03:40:11;;;;;;;3.22;2.50;;;;;;;6.81;100.00;99159.09;6101654;19;20029;-71
2024/02/03 03:42:11;;;;;;;3.47;2.03;;;;;;;6.81;100.00;99165.41;6100077;19;20002;-71
2024/02/03 03:44:12;;;;;;;2.70;1.90;;;;;;;6.85;100.00;99163.56;6102692;19;21564;-71
2024/02/03 03:46:12;;;;;;;2.92;1.77;;;;;;;6.87;100.00;99161.31;6101290;19;20062;-71
2024/02/03 03:48:12;;;;;;;2.88;1.90;;;;;;;6.84;100.00;99166.66;6105334;19;20023;-71
2024/02/03 03:50:13;;;;;;;3.10;1.90;;;;;;;6.88;100.00;99171.16;6108738;19;20006;-71
2024/02/03 03:52:13;;;;;;;2.05;1.58;;;;;;;6.87;100.00;99180.56;6107336;19;19998;-71
2024/02/03 03:54:13;;;;;;;2.72;1.88;;;;;;;6.86;100.00;99184.44;6109942;19;20013;-72
2024/02/03 03:56:14;;;;;;;2.30;1.88;;;;;;;6.86;100.00;99187.19;6107417;19;20003;-71
2024/02/03 03:58:14;;;;;;;3.42;1.90;;;;;;;6.83;100.00;99187.84;6108115;19;20013;-71
2024/02/03 04:00:15;;;;;;;3.08;1.95;;;;;;;6.85;100.00;99184.78;6110036;19;20466;-71
2024/02/03 04:02:15;;;;;;;2.90;1.85;;;;;;;6.87;100.00;99193.47;6108661;19;20020;-71
2024/02/03 04:04:19;;;;;;;3.30;1.77;;;;;;;6.79;100.00;99184.19;6107901;19;20009;-71
2024/02/03 04:06:19;;;;;;;2.22;1.67;;;;;;;6.79;100.00;99180.63;6107223;19;20006;-71
2024/02/03 04:08:19;;;;;;;2.33;1.40;;;;;;;6.82;100.00;99177.19;6109934;19;20006;-71
2024/02/03 04:10:20;;;;;;;2.53;1.80;;;;;;;6.79;100.00;99184.19;6107947;19;19998;-71
2024/02/03 04:12:20;;;;;;;1.75;1.35;;;;;;;6.83;100.00;99185.09;6107423;19;20042;-71
2024/02/03 04:14:21;;;;;;;1.85;1.35;;;;;;;6.85;100.00;99188.31;6109112;19;20862;-71
2024/02/03 04:16:21;;;;;;;3.40;1.50;;;;;;;6.90;100.00;99190.88;6107392;19;20003;-71
2024/02/03 04:18:21;;;;;;;3.35;1.63;;;;;;;6.91;100.00;99202.69;6108119;19;20001;-71
2024/02/03 04:20:22;;;;;;;3.05;1.75;;;;;;;6.88;100.00;99206.94;6108286;19;20086;-71
2024/02/03 04:22:22;;;;;;;2.58;1.25;;;;;;;6.88;100.00;99193.16;6108026;19;20419;-71
2024/02/03 04:24:22;;;;;;;1.70;1.13;;;;;;;6.92;100.00;99207.84;6108585;19;20079;-71
2024/02/03 04:26:23;;;;;;;1.75;1.27;;;;;;;6.94;100.00;99207.50;6106101;19;20002;-71
2024/02/03 04:28:23;;;;;;;1.85;1.48;;;;;;;6.92;100.00;99202.34;6109229;19;20256;-71
2024/02/03 04:30:23;;;;;;;2.33;1.30;;;;;;;6.94;100.00;99204.75;6107227;19;20017;-71
2024/02/03 04:32:24;;;;;;;2.03;1.40;;;;;;;6.88;100.00;99201.41;6108672;19;20003;-71
2024/02/03 04:34:24;;;;;;;3.22;1.50;;;;;;;6.85;100.00;99206.78;6107641;19;20457;-71
2024/02/03 04:36:24;;;;;;;2.53;1.60;;;;;;;6.81;100.00;99200.34;6106737;19;20086;-71
2024/02/03 04:38:25;;;;;;;2.53;1.40;;;;;;;6.83;100.00;99200.81;6107156;19;20037;-71
2024/02/03 04:40:25;;;;;;;1.75;1.40;;;;;;;6.92;100.00;99204.28;6107537;19;20081;-71
2024/02/03 04:42:26;;;;;;;1.30;1.20;;;;;;;6.92;100.00;99207.03;6107501;19;20006;-71
2024/02/03 04:44:26;;;;;;;2.30;1.30;;;;;;;6.93;100.00;99200.41;6107734;19;20450;-71
2024/02/03 04:46:27;;;;;;;2.25;1.48;;;;;;;6.97;100.00;99198.59;6105393;19;20007;-71
2024/02/03 04:48:27;;;;;;;1.95;1.55;;;;;;;7.00;100.00;99198.72;6107971;19;19998;-71
2024/02/03 04:50:27;;;;;;;2.72;1.30;;;;;;;6.94;100.00;99202.00;6105525;19;20411;-71
2024/02/03 04:52:28;;;;;;;1.65;1.38;;;;;;;6.89;100.00;99194.78;6107797;19;20377;-71
2024/02/03 04:54:28;;;;;;;2.75;1.40;;;;;;;6.95;100.00;99204.44;6106859;19;20501;-71
2024/02/03 04:56:28;;;;;;;2.92;1.70;;;;;;;6.98;100.00;99191.94;6106858;19;20007;-71
2024/02/03 04:58:30;;;;;;;3.03;1.30;;;;;;;6.93;100.00;99198.44;6107444;19;20454;-71
2024/02/03 05:00:31;;;;;;;1.67;1.30;;;;;;;6.90;100.00;99198.34;6107964;19;20031;-71
2024/02/03 05:02:31;;;;;;;4.07;2.25;;;;;;;6.90;100.00;99187.31;6107439;19;20018;-71
2024/02/03 05:04:31;;;;;;;1.95;1.42;;;;;;;6.88;100.00;99186.88;6108149;19;20467;-71
2024/02/03 05:06:32;;;;;;;2.42;1.50;;;;;;;6.88;100.00;99176.66;6112675;19;20016;-71
2024/02/03 05:08:34;;;;;;;3.55;1.60;;;;;;;6.89;100.00;99175.53;6113332;19;20006;-71
2024/02/03 05:10:34;;;;;;;3.17;1.30;;;;;;;6.89;100.00;99185.72;6113421;19;20048;-71
2024/02/03 05:12:34;;;;;;;1.77;1.23;;;;;;;6.93;100.00;99179.19;6113024;19;20459;-71
2024/02/03 05:14:35;;;;;;;2.72;1.50;;;;;;;6.88;100.00;99176.66;6112494;19;20604;-71
2024/02/03 05:16:35;;;;;;;2.53;1.50;;;;;;;6.87;100.00;99177.81;6110163;19;20567;-71
2024/02/03 05:18:35;;;;;;;2.42;1.67;;;;;;;6.89;100.00;99183.78;6111657;19;20015;-71
2024/02/03 05:20:36;;;;;;;2.50;1.50;;;;;;;6.95;100.00;99184.34;6112326;19;20007;-71
2024/02/03 05:22:36;;;;;;;2.30;1.38;;;;;;;6.93;100.00;99181.94;6111981;19;20481;-71
2024/02/03 05:24:36;;;;;;;3.17;1.45;;;;;;;7.00;100.00;99175.91;6112160;19;20010;-71
2024/02/03 05:26:37;;;;;;;2.20;1.60;;;;;;;6.98;100.00;99178.19;6111824;19;20357;-71
2024/02/03 05:28:37;;;;;;;2.03;1.38;;;;;;;6.96;100.00;99172.22;6112305;19;20011;-71
2024/02/03 05:30:37;;;;;;;2.13;1.58;;;;;;;6.98;100.00;99158.94;6109903;19;20015;-71
2024/02/03 05:32:38;;;;;;;3.70;1.40;;;;;;;6.95;100.00;99162.34;6108721;19;20003;-71
2024/02/03 05:34:38;;;;;;;2.28;1.30;;;;;;;6.95;100.00;99170.59;6111512;19;20026;-71
2024/02/03 05:36:39;;;;;;;1.73;1.27;;;;;;;6.94;100.00;99163.50;6109677;19;20356;-71
2024/02/03 05:38:39;;;;;;;2.35;1.20;;;;;;;6.87;100.00;99172.31;6111027;19;20444;-71
2024/02/03 05:40:39;;;;;;;1.80;1.30;;;;;;;6.91;100.00;99170.47;6111193;19;20006;-71
2024/02/03 05:42:40;;;;;;;1.92;1.40;;;;;;;6.87;100.00;99176.97;6111876;19;20027;-71
2024/02/03 05:44:40;;;;;;;1.67;1.25;;;;;;;6.89;100.00;99169.22;6109746;19;20015;-71
2024/02/03 05:46:40;;;;;;;1.70;1.20;;;;;;;6.88;100.00;99167.59;6110672;19;20475;-71
2024/02/03 05:48:40;;;;;;;1.73;1.30;;;;;;;6.89;100.00;99152.72;6110807;19;20011;-71
2024/02/03 05:50:41;;;;;;;2.25;1.40;;;;;;;6.91;100.00;99148.47;6111739;19;20352;-71
2024/02/03 05:52:41;;;;;;;1.83;1.40;;;;;;;6.90;100.00;99146.06;6109990;19;20487;-71
2024/02/03 05:54:41;;;;;;;3.20;2.03;;;;;;;6.89;100.00;99142.50;6111608;19;20006;-71
2024/02/03 05:56:42;;;;;;;3.38;1.73;;;;;;;6.89;100.00;99148.00;6109908;19;20074;-71
2024/02/03 05:58:44;;;;;;;2.58;1.50;;;;;;;6.95;100.00;99143.91;6109394;19;20005;-71
2024/02/03 06:00:44;;;;;;;2.72;1.52;;;;;;;6.99;100.00;99141.28;6110106;19;20089;-71
2024/02/03 06:02:45;;;;;;;4.45;2.38;;;;;;;6.91;100.00;99142.16;6109339;19;20002;-71
2024/02/03 06:04:46;;;;;;;1.83;1.30;;;;;;;6.87;100.00;99144.81;6111328;19;20007;-71
2024/02/03 06:06:47;;;;;;;2.13;1.40;;;;;;;6.87;100.00;99142.06;6110396;19;20006;-71
2024/02/03 06:08:47;;;;;;;2.65;1.55;;;;;;;6.82;100.00;99138.69;6110953;19;20466;-71
2024/02/03 06:10:48;;;;;;;1.77;1.30;;;;;;;6.85;100.00;99146.25;6110382;19;20010;-71
2024/02/03 06:12:48;;;;;;;1.98;1.30;;;;;;;6.82;100.00;99155.19;6111279;19;20071;-71
2024/02/03 06:14:48;;;;;;;1.95;1.25;;;;;;;6.78;100.00;99146.78;6109988;19;20017;-71
2024/02/03 06:16:49;;;;;;;1.48;1.10;;;;;;;6.77;100.00;99142.44;6109159;19;20002;-71
2024/02/03 06:18:49;;;;;;;1.85;1.38;;;;;;;6.78;100.00;99144.03;6110799;19;20374;-71
2024/02/03 06:20:50;;;;;;;1.92;1.02;;;;;;;6.72;100.00;99143.47;6110298;19;20315;-71
2024/02/03 06:22:50;;;;;;;1.52;1.00;;;;;;;6.70;100.00;99144.91;6110401;19;20007;-71
2024/02/03 06:24:50;;;;;;;1.02;0.90;;;;;;;6.73;100.00;99147.81;6110281;19;19999;-71
2024/02/03 06:26:51;;;;;;;1.23;1.10;;;;;;;6.76;100.00;99144.38;6109408;19;20386;-71
2024/02/03 06:28:51;;;;;;;2.13;1.42;;;;;;;6.86;100.00;99145.13;6110440;19;20402;-71
2024/02/03 06:30:51;;;;;;;1.38;1.10;;;;;;;6.81;100.00;99148.88;6110350;19;20007;-71
2024/02/03 06:32:51;;;;;;;1.35;1.05;;;;;;;6.83;100.00;99141.09;6109282;19;19999;-71
2024/02/03 06:34:52;;;;;;;1.92;1.35;;;;;;;6.86;100.00;99145.13;6110346;19;20006;-71
2024/02/03 06:36:52;;;;;;;2.28;1.25;;;;;;;6.76;100.00;99143.59;6109667;19;20006;-71
2024/02/03 06:38:52;;;;;;;1.90;1.30;;;;;;;6.81;100.00;99137.88;6109346;19;20006;-71
2024/02/03 06:40:53;;;;;;;1.63;1.10;;;;;;;6.81;100.00;99150.84;6110860;19;20327;-71
2024/02/03 06:42:53;;;;;;;4.15;1.88;;;;;;;6.79;100.00;99147.63;6109698;19;20011;-71
2024/02/03 06:44:53;;;;;;;1.58;1.42;;;;;;;6.74;100.00;99141.19;6108696;19;20006;-71
2024/02/03 06:46:53;;;;;;;1.67;1.08;;;;;;;6.72;100.00;99143.47;6101901;19;20481;-71
2024/02/03 06:48:54;;;;;;;1.60;1.13;;;;;;;6.70;100.00;99132.00;6109445;19;20014;-71
2024/02/03 06:50:54;;;;;;;1.73;1.40;;;;;;;6.79;100.00;99140.19;6109509;19;20759;-71
2024/02/03 06:52:54;;;;;;;2.17;1.20;;;;;;;6.75;100.00;99131.78;6110067;19;20034;-71
2024/02/03 06:54:55;;;;;;;2.67;1.45;;;;;;;6.67;100.00;99137.34;6109494;19;20018;-71
2024/02/03 06:56:55;;;;;;;1.95;1.17;;;;;;;6.66;100.00;99138.50;6108123;19;20022;-71
2024/02/03 06:58:56;;;;;;;1.25;1.05;;;;;;;6.69;100.00;99124.88;6108530;19;20034;-71
2024/02/03 07:00:56;;;;;;;1.73;1.27;;;;;;;6.68;100.00;99116.97;6108810;19;20522;-71
2024/02/03 07:02:56;;;;;;;2.63;1.75;;;;;;;6.66;100.00;99127.50;6105909;19;20336;-71
2024/02/03 07:04:56;;;;;;;2.38;1.58;;;;;;;6.69;100.00;99118.56;6106822;19;20007;-71
2024/02/03 07:06:57;;;;;;;2.72;1.80;;;;;;;6.65;100.00;99107.44;6107559;19;20017;-71
2024/02/03 07:08:57;;;;;;;2.35;1.40;;;;;;;6.68;100.00;99125.22;6108182;19;20006;-71
2024/02/03 07:10:57;;;;;;;1.70;1.25;;;;;;;6.72;100.00;99126.97;6107553;19;20006;-71
2024/02/03 07:12:59;;;;;;;1.98;1.30;;;;;;;6.73;100.00;99108.53;6108142;19;20315;-71
2024/02/03 07:14:59;;;;;;;1.85;1.23;;;;;;;6.70;100.00;99110.00;6109443;19;20011;-71
2024/02/03 07:17:00;;;;;;;0.90;0.90;;;;;;;6.68;100.00;99106.75;6108999;19;20039;-71
2024/02/03 07:19:00;;;;;;;1.00;0.90;;;;;;;6.72;100.00;99099.47;6108089;19;20010;-71
2024/02/03 07:21:00;;;;;;;2.88;1.23;;;;;;;6.73;100.00;99086.53;6108541;19;20002;-71
2024/02/03 07:23:01;;;;;;;4.97;2.00;;;;;;;6.72;100.00;99093.16;6108702;19;20343;-71
2024/02/03 07:25:01;;;;;;;3.63;1.80;;;;;;;6.73;100.00;99092.03;6108808;19;20488;-71
2024/02/03 07:27:02;;;;;;;3.00;1.60;;;;;;;6.71;100.00;99083.31;6105685;19;20003;-71
2024/02/03 07:29:03;;;;;;;2.45;1.55;;;;;;;6.72;100.00;99096.72;6106731;19;20022;-71
2024/02/03 07:31:03;;;;;;;1.40;1.00;;;;;;;6.75;100.00;99093.28;6108410;19;20011;-71
2024/02/03 07:33:07;;;;;;;2.63;1.45;;;;;;;6.84;100.00;99114.41;6107901;19;20007;-71
2024/02/03 07:35:08;;;;;;;2.30;1.20;;;;;;;6.86;100.00;99112.09;6109298;19;20015;-71
2024/02/03 07:37:08;;;;;;;2.95;1.10;;;;;;;6.92;100.00;99127.28;6107215;19;20003;-71
2024/02/03 07:39:08;;;;;;;2.35;0.90;;;;;;;6.90;100.00;99127.63;6107921;19;20027;-71
2024/02/03 07:41:09;;;;;;;1.75;1.30;;;;;;;6.87;100.00;99125.53;6108722;19;20322;-71
2024/02/03 07:43:09;;;;;;;1.20;1.10;;;;;;;6.88;100.00;99140.09;6109257;19;20011;-71
2024/02/03 07:45:11;;;;;;;1.10;0.90;;;;;;;6.92;100.00;99143.78;6108946;19;20013;-71
2024/02/03 07:47:12;;;;;;;2.78;1.25;;;;;;;6.84;100.00;99134.44;6105694;19;20025;-71
2024/02/03 07:49:12;;;;;;;3.22;1.63;;;;;;;6.87;100.00;99130.22;6101645;19;20003;-71
2024/02/03 07:51:13;;;;;;;3.38;1.55;;;;;;;6.85;100.00;99122.31;6101831;19;20010;-71
2024/02/03 07:53:13;;;;;;;3.30;1.45;;;;;;;6.86;100.00;99125.84;6101993;19;20014;-71
2024/02/03 07:55:13;;;;;;;1.90;1.17;;;;;;;6.89;100.00;99125.22;6101859;19;20010;-71
2024/02/03 07:57:14;;;;;;;3.33;1.55;;;;;;;6.88;100.00;99131.84;6100910;19;20557;-71
2024/02/03 07:59:14;;;;;;;2.63;1.30;;;;;;;6.91;100.00;99139.41;6101272;19;20548;-72
2024/02/03 08:01:18;;;;;;;2.83;1.45;;;;;;;6.84;100.00;99128.16;6100777;19;20040;-71
2024/02/03 08:03:18;;;;;;;3.05;1.52;;;;;;;6.84;100.00;99128.16;6102204;19;20013;-71
2024/02/03 08:05:19;;;;;;;1.90;1.10;;;;;;;6.86;100.00;99143.16;6102204;19;20455;-71
2024/02/03 08:07:19;;;;;;;2.92;1.45;;;;;;;6.81;100.00;99137.09;6099754;19;20073;-71
2024/02/03 08:09:19;;;;;;;2.58;1.35;;;;;;;6.84;100.00;99153.72;6101072;19;20416;-71
2024/02/03 08:11:20;;;;;;;2.22;1.10;;;;;;;6.75;100.00;99148.28;6100614;19;20014;-71
2024/02/03 08:13:20;;;;;;;2.60;1.58;;;;;;;6.78;100.00;99146.00;6100257;19;20478;-71
2024/02/03 08:15:20;;;;;;;3.97;1.17;;;;;;;6.78;100.00;99146.78;6101723;19;20010;-71
2024/02/03 08:17:21;;;;;;;1.80;1.30;;;;;;;6.78;100.00;99148.75;6101010;19;20036;-71
2024/02/03 08:19:21;;;;;;;1.77;1.10;;;;;;;6.75;100.00;99148.28;6100470;19;20334;-71
2024/02/03 08:21:21;;;;;;;1.92;1.25;;;;;;;6.70;100.00;99139.41;6101336;19;20010;-71
2024/02/03 08:23:22;;;;;;;2.72;1.92;;;;;;;6.69;100.00;99144.13;6101296;19;20141;-71
2024/02/03 08:25:23;;;;;;;2.53;1.58;;;;;;;6.68;100.00;99141.72;6100379;19;20078;-71
2024/02/03 08:27:23;;;;;;;0.90;0.80;;;;;;;6.73;100.00;99142.31;6100553;19;20031;-71
2024/02/03 08:29:25;;;;;;;2.22;1.45;;;;;;;6.70;100.00;99142.16;6100281;19;20086;-71
2024/02/03 08:31:25;;;;;;;3.77;1.30;;;;;;;6.73;100.00;99138.78;6101413;19;20086;-72
2024/02/03 08:33:25;;;;;;;1.15;0.93;;;;;;;6.82;100.00;99141.44;6100770;19;20527;-71
2024/02/03 08:35:26;;;;;;;1.33;1.13;;;;;;;6.77;100.00;99142.44;6100620;19;20017;-71
2024/02/03 08:37:26;;;;;;;2.10;1.40;;;;;;;6.76;100.00;99135.34;6100300;19;20031;-71
2024/02/03 08:39:26;;;;;;;2.22;1.55;;;;;;;6.76;100.00;99130.63;6100087;19;20020;-71
2024/02/03 08:41:27;;;;;;;2.95;1.15;;;;;;;6.79;100.00;99131.94;6106296;19;20036;-71
2024/02/03 08:43:27;;;;;;;1.52;1.00;;;;;;;6.82;100.00;99138.69;6106795;19;20358;-71
2024/02/03 08:45:28;;;;;;;3.30;1.58;;;;;;;6.81;100.00;99137.09;6107210;19;20006;-71
2024/02/03 08:47:28;;;;;;;2.28;1.38;;;;;;;6.80;100.00;99135.47;6106476;19;20479;-71
2024/02/03 08:49:28;;;;;;;2.78;1.52;;;;;;;6.82;100.00;99139.50;6113170;19;20007;-71
2024/02/03 08:51:29;;;;;;;2.25;1.33;;;;;;;6.79;100.00;99150.38;6113708;19;20006;-71
2024/02/03 08:53:29;;;;;;;3.67;1.70;;;;;;;6.81;100.00;99157.16;6113446;19;20034;-71
2024/02/03 08:55:30;;;;;;;3.95;1.67;;;;;;;6.85;100.00;99157.25;6113425;19;20006;-71
2024/02/03 08:57:30;;;;;;;3.97;1.90;;;;;;;6.90;100.00;99155.13;6111587;19;20023;-71
2024/02/03 08:59:30;;;;;;;2.47;1.40;;;;;;;6.89;100.00;99156.25;6112613;19;20007;-71
2024/02/03 09:01:30;;;;;;;2.00;1.40;;;;;;;6.91;100.00;99148.47;6112407;19;20435;-71
2024/02/03 09:03:31;;;;;;;1.80;1.42;;;;;;;6.88;100.00;99151.09;6113714;19;20340;-71
2024/02/03 09:05:31;;;;;;;1.70;1.20;;;;;;;6.89;100.00;99147.22;6113285;19;20006;-71
2024/02/03 09:07:34;;;;;;;1.45;1.20;;;;;;;6.88;100.00;99151.91;6111448;19;20077;-71
2024/02/03 09:09:35;;;;;;;2.08;1.50;;;;;;;6.86;100.00;99150.63;6112259;19;20009;-71
2024/02/03 09:11:35;;;;;;;1.90;1.70;;;;;;;6.80;100.00;99155.53;6112166;19;20006;-71
2024/02/03 09:13:35;;;;;;;1.67;1.25;;;;;;;6.81;100.00;99157.16;6113067;19;20002;-71
2024/02/03 09:15:35;;;;;;;2.70;1.90;;;;;;;6.88;100.00;99153.84;6112928;19;20062;-71
2024/02/03 09:17:36;;;;;;;1.45;1.17;;;;;;;6.89;100.00;99144.47;6112604;19;20453;-71
2024/02/03 09:19:36;;;;;;;2.17;1.10;;;;;;;6.95;100.00;99146.66;6110334;19;20083;-71
2024/02/03 09:21:36;;;;;;;1.88;1.30;;;;;;;7.00;100.00;99151.94;6112230;19;20066;-71
2024/02/03 09:23:39;;;;;;;3.55;1.23;;;;;;;7.00;100.00;99146.44;6109213;19;20014;-71
2024/02/03 09:25:40;;;;;;;;;;;;;;;7.04;100.00;99143.84;6112839;19;20006;-71
2024/02/03 09:27:41;;;;;;;1.00;0.90;;;;;;;7.08;100.00;99147.50;6110908;19;20493;-71